Upstream stations:
Downstream station:
SHEF ID: BFFO2 Cimarron River near Buffalo, OK
STATION TYPE:
Regulating: Stage = 6.00, Flow = 750
PRECIP STAGE RIV-FLOW BAT-LOAD
in ft cfs volt
Ccp-Rev Ccp-Rev Ccp-Rev Ccp-Rev
(US/Central)
01/18 00:00 0.00 3.27 14 12.73
01/18 01:00 0.00 3.30 16 12.73
01/18 02:00 0.00 3.27 14 12.65
01/18 03:00 0.00 3.27 14 12.65
01/18 04:00 0.00 3.30 16 12.65
01/18 05:00 0.00 3.27 14 12.65
01/18 06:00 0.00 3.27 14 12.57
01/18 07:00 0.00 3.26 13 12.57
01/18 08:00 0.03 3.27 14 12.49
01/18 09:00 0.00 3.28 15 12.89
01/18 10:00 0.00 3.28 15 13.53
01/18 11:00 0.00 3.29 16 13.53
01/18 12:00 0.00 3.28 15 13.53
01/18 13:00 0.00 3.28 15 13.44
01/18 14:00 0.00 3.28 15 13.44
01/18 15:00 0.00 3.28 15 13.44
01/18 16:00 0.00 3.28 15 13.53
01/18 17:00 0.00 3.28 15 13.60
01/18 18:00 0.00 3.26 13 13.29
01/18 19:00 0.00 3.29 16 12.97
01/18 20:00 0.00 3.29 16 12.81
01/18 21:00 0.00 3.28 15 12.81
01/18 22:00 0.00 3.27 14 12.73
01/18 23:00 0.00 3.27 14 12.73